sensor_id;sensor_type;location;lat;lon;timestamp;pressure;altitude;pressure_sealevel;temperature;humidity
45327;BME280;31062;49.678;24.560;2023-03-23T00:02:30;97831.81;;;5.87;73.20
45327;BME280;31062;49.678;24.560;2023-03-23T00:05:19;98023.50;;;7.01;73.58
45327;BME280;31062;49.678;24.560;2023-03-23T00:08:04;97877.63;;;6.07;73.78
45327;BME280;31062;49.678;24.560;2023-03-23T00:10:50;97873.22;;;6.04;74.10
45327;BME280;31062;49.678;24.560;2023-03-23T00:13:36;98024.22;;;7.09;74.06
45327;BME280;31062;49.678;24.560;2023-03-23T00:16:24;98029.00;;;7.01;74.47
45327;BME280;31062;49.678;24.560;2023-03-23T00:19:16;98040.38;;;7.12;74.71
45327;BME280;31062;49.678;24.560;2023-03-23T00:22:03;98006.56;;;7.12;74.16
45327;BME280;31062;49.678;24.560;2023-03-23T00:24:48;97824.09;;;5.93;74.08
45327;BME280;31062;49.678;24.560;2023-03-23T00:27:35;98013.84;;;7.24;74.47
45327;BME280;31062;49.678;24.560;2023-03-23T00:30:19;97999.75;;;7.13;74.58
45327;BME280;31062;49.678;24.560;2023-03-23T00:33:04;97978.97;;;7.12;74.56
45327;BME280;31062;49.678;24.560;2023-03-23T00:35:49;97852.94;;;6.32;74.74
45327;BME280;31062;49.678;24.560;2023-03-23T00:38:38;97999.97;;;7.39;74.59
45327;BME280;31062;49.678;24.560;2023-03-23T00:41:23;97973.38;;;7.27;74.31
45327;BME280;31062;49.678;24.560;2023-03-23T00:44:08;97977.03;;;7.37;74.35
45327;BME280;31062;49.678;24.560;2023-03-23T00:46:52;97989.09;;;7.49;74.40
45327;BME280;31062;49.678;24.560;2023-03-23T00:49:40;97994.16;;;7.60;73.94
45327;BME280;31062;49.678;24.560;2023-03-23T00:52:25;97864.66;;;6.80;73.67
45327;BME280;31062;49.678;24.560;2023-03-23T00:55:09;97971.81;;;7.49;73.77
45327;BME280;31062;49.678;24.560;2023-03-23T00:57:54;97974.69;;;7.58;73.31
45327;BME280;31062;49.678;24.560;2023-03-23T01:00:42;97989.66;;;7.72;73.53
45327;BME280;31062;49.678;24.560;2023-03-23T01:03:26;98009.72;;;7.73;73.90
45327;BME280;31062;49.678;24.560;2023-03-23T01:06:12;97982.63;;;7.54;73.48
45327;BME280;31062;49.678;24.560;2023-03-23T01:09:02;97989.66;;;7.72;73.37
45327;BME280;31062;49.678;24.560;2023-03-23T01:11:48;97970.28;;;7.55;73.40
45327;BME280;31062;49.678;24.560;2023-03-23T01:14:33;97942.78;;;7.40;73.58
45327;BME280;31062;49.678;24.560;2023-03-23T01:17:17;97982.19;;;7.65;73.46
45327;BME280;31062;49.678;24.560;2023-03-23T01:20:03;97988.97;;;7.64;73.71
45327;BME280;31062;49.678;24.560;2023-03-23T01:22:50;98008.13;;;7.62;73.67
45327;BME280;31062;49.678;24.560;2023-03-23T01:25:36;97978.72;;;7.57;73.68
45327;BME280;31062;49.678;24.560;2023-03-23T01:28:21;97794.25;;;6.30;73.69
45327;BME280;31062;49.678;24.560;2023-03-23T01:31:08;97977.69;;;7.45;74.21
45327;BME280;31062;49.678;24.560;2023-03-23T01:33:54;97793.72;;;6.24;74.16
45327;BME280;31062;49.678;24.560;2023-03-23T01:36:40;97948.41;;;7.25;74.20
45327;BME280;31062;49.678;24.560;2023-03-23T01:39:25;97973.72;;;7.38;74.45
45327;BME280;31062;49.678;24.560;2023-03-23T01:42:10;97978.13;;;7.34;74.80
45327;BME280;31062;49.678;24.560;2023-03-23T01:47:39;97974.69;;;7.26;74.54
45327;BME280;31062;49.678;24.560;2023-03-23T01:50:25;97979.75;;;7.05;74.93
45327;BME280;31062;49.678;24.560;2023-03-23T01:53:12;97969.72;;;7.24;74.84
45327;BME280;31062;49.678;24.560;2023-03-23T01:55:58;97951.22;;;7.10;74.85
45327;BME280;31062;49.678;24.560;2023-03-23T01:58:44;97996.03;;;7.25;75.54
45327;BME280;31062;49.678;24.560;2023-03-23T02:01:29;97977.78;;;7.30;75.61
45327;BME280;31062;49.678;24.560;2023-03-23T02:04:15;97973.38;;;7.27;75.43
45327;BME280;31062;49.678;24.560;2023-03-23T02:07:01;97792.13;;;6.05;75.05
45327;BME280;31062;49.678;24.560;2023-03-23T02:09:50;98000.19;;;7.34;75.34
45327;BME280;31062;49.678;24.560;2023-03-23T02:12:34;97776.72;;;6.02;75.56
45327;BME280;31062;49.678;24.560;2023-03-23T02:15:20;97968.22;;;7.31;75.51
45327;BME280;31062;49.678;24.560;2023-03-23T02:21:54;97931.94;;;7.10;76.07
45327;BME280;31062;49.678;24.560;2023-03-23T02:28:01;97971.56;;;7.22;75.74
45327;BME280;31062;49.678;24.560;2023-03-23T02:34:29;97967.47;;;7.38;76.02
45327;BME280;31062;49.678;24.560;2023-03-23T02:40:27;97962.09;;;7.40;75.71
45327;BME280;31062;49.678;24.560;2023-03-23T02:43:15;97964.13;;;7.39;75.30
45327;BME280;31062;49.678;24.560;2023-03-23T02:46:04;97963.59;;;7.33;75.55
45327;BME280;31062;49.678;24.560;2023-03-23T02:48:51;97783.66;;;6.11;75.42
45327;BME280;31062;49.678;24.560;2023-03-23T02:51:38;97965.63;;;7.33;75.32
45327;BME280;31062;49.678;24.560;2023-03-23T02:54:24;97964.44;;;7.19;75.48
45327;BME280;31062;49.678;24.560;2023-03-23T02:57:10;97957.97;;;7.24;75.58
45327;BME280;31062;49.678;24.560;2023-03-23T02:59:58;97982.59;;;7.22;75.45
45327;BME280;31062;49.678;24.560;2023-03-23T03:02:49;97860.19;;;6.60;75.61
45327;BME280;31062;49.678;24.560;2023-03-23T03:09:01;97948.38;;;6.92;75.46
45327;BME280;31062;49.678;24.560;2023-03-23T03:11:50;97945.91;;;7.12;75.89
45327;BME280;31062;49.678;24.560;2023-03-23T03:14:46;97930.56;;;6.93;75.59
45327;BME280;31062;49.678;24.560;2023-03-23T03:17:36;97955.13;;;7.07;75.90
45327;BME280;31062;49.678;24.560;2023-03-23T03:20:26;97953.94;;;6.85;75.75
45327;BME280;31062;49.678;24.560;2023-03-23T03:23:14;97956.59;;;7.08;76.05
45327;BME280;31062;49.678;24.560;2023-03-23T03:26:03;97806.81;;;6.00;75.90
45327;BME280;31062;49.678;24.560;2023-03-23T03:29:02;97801.53;;;5.95;75.43
45327;BME280;31062;49.678;24.560;2023-03-23T03:31:55;97952.94;;;6.97;75.35
45327;BME280;31062;49.678;24.560;2023-03-23T03:34:43;97961.06;;;6.95;75.69
45327;BME280;31062;49.678;24.560;2023-03-23T03:37:36;97952.81;;;6.88;76.10
45327;BME280;31062;49.678;24.560;2023-03-23T03:40:23;97882.69;;;6.34;76.34
45327;BME280;31062;49.678;24.560;2023-03-23T03:43:08;97956.31;;;6.81;76.41
45327;BME280;31062;49.678;24.560;2023-03-23T03:45:53;97959.63;;;6.79;76.11
45327;BME280;31062;49.678;24.560;2023-03-23T03:48:40;97788.56;;;5.57;76.47
45327;BME280;31062;49.678;24.560;2023-03-23T03:51:26;97965.13;;;6.87;76.27
45327;BME280;31062;49.678;24.560;2023-03-23T03:54:12;97949.00;;;6.76;75.91
45327;BME280;31062;49.678;24.560;2023-03-23T03:56:57;97967.31;;;6.88;75.71
45327;BME280;31062;49.678;24.560;2023-03-23T04:00:03;97978.00;;;6.84;75.78
45327;BME280;31062;49.678;24.560;2023-03-23T04:03:08;97961.47;;;6.84;76.02
45327;BME280;31062;49.678;24.560;2023-03-23T04:06:13;97976.88;;;6.87;76.00
45327;BME280;31062;49.678;24.560;2023-03-23T04:08:58;97972.13;;;6.80;75.98
45327;BME280;31062;49.678;24.560;2023-03-23T04:11:45;98012.16;;;6.81;75.58
45327;BME280;31062;49.678;24.560;2023-03-23T04:14:48;97987.19;;;6.79;75.63
45327;BME280;31062;49.678;24.560;2023-03-23T04:17:34;97779.22;;;5.45;75.60
45327;BME280;31062;49.678;24.560;2023-03-23T04:20:21;97956.75;;;6.62;76.41
45327;BME280;31062;49.678;24.560;2023-03-23T04:23:08;97890.44;;;6.12;76.41
45327;BME280;31062;49.678;24.560;2023-03-23T04:25:53;97985.75;;;6.63;76.22
45327;BME280;31062;49.678;24.560;2023-03-23T04:28:46;97965.25;;;6.49;76.21
45327;BME280;31062;49.678;24.560;2023-03-23T04:31:48;97975.50;;;6.56;76.32
45327;BME280;31062;49.678;24.560;2023-03-23T04:34:47;97806.34;;;5.49;76.20
45327;BME280;31062;49.678;24.560;2023-03-23T04:37:34;97854.16;;;5.76;76.31
45327;BME280;31062;49.678;24.560;2023-03-23T04:40:22;97941.03;;;6.40;76.01
45327;BME280;31062;49.678;24.560;2023-03-23T04:43:22;97974.75;;;6.63;76.09
45327;BME280;31062;49.678;24.560;2023-03-23T04:46:32;97847.19;;;5.75;76.32
45327;BME280;31062;49.678;24.560;2023-03-23T04:49:23;97981.72;;;6.72;75.78
45327;BME280;31062;49.678;24.560;2023-03-23T04:52:16;97795.16;;;5.47;75.61
45327;BME280;31062;49.678;24.560;2023-03-23T04:55:07;97995.28;;;6.77;75.93
45327;BME280;31062;49.678;24.560;2023-03-23T04:57:53;97974.72;;;6.78;75.39
45327;BME280;31062;49.678;24.560;2023-03-23T05:01:04;97970.91;;;6.66;75.28
45327;BME280;31062;49.678;24.560;2023-03-23T05:03:54;97995.41;;;6.94;74.94
45327;BME280;31062;49.678;24.560;2023-03-23T05:06:39;97984.00;;;6.98;74.63
45327;BME280;31062;49.678;24.560;2023-03-23T05:09:31;97937.84;;;6.66;74.59
45327;BME280;31062;49.678;24.560;2023-03-23T05:12:16;97802.81;;;5.79;74.49
45327;BME280;31062;49.678;24.560;2023-03-23T05:15:13;97981.03;;;7.04;74.62
45327;BME280;31062;49.678;24.560;2023-03-23T05:18:00;97806.66;;;5.83;74.29
45327;BME280;31062;49.678;24.560;2023-03-23T05:20:45;97962.88;;;7.01;73.61
45327;BME280;31062;49.678;24.560;2023-03-23T05:23:37;97944.94;;;6.84;73.56
45327;BME280;31062;49.678;24.560;2023-03-23T05:26:33;98003.78;;;7.12;73.58
45327;BME280;31062;49.678;24.560;2023-03-23T05:29:24;97980.81;;;7.09;73.84
45327;BME280;31062;49.678;24.560;2023-03-23T05:32:16;97803.53;;;5.87;73.81
45327;BME280;31062;49.678;24.560;2023-03-23T05:35:03;97827.31;;;6.14;73.81
45327;BME280;31062;49.678;24.560;2023-03-23T05:37:49;97987.38;;;7.21;73.67
45327;BME280;31062;49.678;24.560;2023-03-23T05:40:34;97991.75;;;7.32;73.57
45327;BME280;31062;49.678;24.560;2023-03-23T05:43:29;97791.38;;;6.12;73.61
45327;BME280;31062;49.678;24.560;2023-03-23T05:46:27;97993.84;;;7.56;73.44
45327;BME280;31062;49.678;24.560;2023-03-23T05:49:16;98001.94;;;7.54;73.24
45327;BME280;31062;49.678;24.560;2023-03-23T05:52:01;98006.19;;;7.80;72.67
45327;BME280;31062;49.678;24.560;2023-03-23T05:54:46;97995.28;;;8.07;73.04
45327;BME280;31062;49.678;24.560;2023-03-23T05:57:32;97970.88;;;8.20;72.33
45327;BME280;31062;49.678;24.560;2023-03-23T06:00:25;97995.25;;;8.56;71.18
45327;BME280;31062;49.678;24.560;2023-03-23T06:03:22;97987.78;;;8.67;70.32
45327;BME280;31062;49.678;24.560;2023-03-23T06:06:22;97991.09;;;8.82;69.63
45327;BME280;31062;49.678;24.560;2023-03-23T06:09:26;97990.50;;;9.01;69.33
45327;BME280;31062;49.678;24.560;2023-03-23T06:12:24;97968.88;;;9.07;68.77
45327;BME280;31062;49.678;24.560;2023-03-23T06:15:23;97977.97;;;9.17;68.40
45327;BME280;31062;49.678;24.560;2023-03-23T06:18:35;97985.56;;;9.43;67.58
45327;BME280;31062;49.678;24.560;2023-03-23T06:21:26;97975.13;;;9.52;66.44
45327;BME280;31062;49.678;24.560;2023-03-23T06:24:17;97982.34;;;9.74;66.45
45327;BME280;31062;49.678;24.560;2023-03-23T06:27:02;97983.44;;;9.88;66.13
45327;BME280;31062;49.678;24.560;2023-03-23T06:29:47;97785.06;;;8.72;64.70
45327;BME280;31062;49.678;24.560;2023-03-23T06:32:33;97993.25;;;10.08;64.94
45327;BME280;31062;49.678;24.560;2023-03-23T06:35:20;97988.72;;;10.03;64.94
45327;BME280;31062;49.678;24.560;2023-03-23T06:38:10;97817.38;;;9.06;65.02
45327;BME280;31062;49.678;24.560;2023-03-23T06:41:04;97862.66;;;9.47;64.71
45327;BME280;31062;49.678;24.560;2023-03-23T06:43:48;97971.50;;;10.41;64.43
45327;BME280;31062;49.678;24.560;2023-03-23T06:46:40;97973.84;;;10.64;63.56
45327;BME280;31062;49.678;24.560;2023-03-23T06:49:42;97822.09;;;9.78;62.46
45327;BME280;31062;49.678;24.560;2023-03-23T06:52:36;97991.94;;;11.03;62.61
45327;BME280;31062;49.678;24.560;2023-03-23T06:55:21;97979.66;;;11.26;62.38
45327;BME280;31062;49.678;24.560;2023-03-23T06:58:06;97886.75;;;10.67;61.51
45327;BME280;31062;49.678;24.560;2023-03-23T07:00:55;97979.00;;;11.56;61.90
45327;BME280;31062;49.678;24.560;2023-03-23T07:03:46;97980.44;;;11.67;61.49
45327;BME280;31062;49.678;24.560;2023-03-23T07:06:36;97824.44;;;10.68;60.62
45327;BME280;31062;49.678;24.560;2023-03-23T07:09:24;97839.84;;;10.90;60.63
45327;BME280;31062;49.678;24.560;2023-03-23T07:12:09;97836.78;;;10.96;60.41
45327;BME280;31062;49.678;24.560;2023-03-23T07:15:00;97939.44;;;11.86;60.78
45327;BME280;31062;49.678;24.560;2023-03-23T07:17:47;97957.88;;;12.13;60.11
45327;BME280;31062;49.678;24.560;2023-03-23T07:20:49;97833.56;;;11.40;59.14
45327;BME280;31062;49.678;24.560;2023-03-23T07:23:34;97989.16;;;12.65;58.30
45327;BME280;31062;49.678;24.560;2023-03-23T07:26:22;97949.28;;;12.51;57.68
45327;BME280;31062;49.678;24.560;2023-03-23T07:29:11;97979.94;;;12.84;57.63
45327;BME280;31062;49.678;24.560;2023-03-23T07:32:02;97854.00;;;12.18;56.66
45327;BME280;31062;49.678;24.560;2023-03-23T07:34:47;97867.56;;;12.45;56.64
45327;BME280;31062;49.678;24.560;2023-03-23T07:37:40;97963.19;;;13.27;56.69
45327;BME280;31062;49.678;24.560;2023-03-23T07:40:26;97950.34;;;13.22;56.76
45327;BME280;31062;49.678;24.560;2023-03-23T07:43:15;97969.03;;;13.42;56.26
45327;BME280;31062;49.678;24.560;2023-03-23T07:46:19;97973.63;;;13.49;55.70
45327;BME280;31062;49.678;24.560;2023-03-23T07:49:19;97812.66;;;12.45;55.21
45327;BME280;31062;49.678;24.560;2023-03-23T07:52:16;97846.94;;;12.59;54.69
45327;BME280;31062;49.678;24.560;2023-03-23T07:55:04;97811.75;;;12.64;53.68
45327;BME280;31062;49.678;24.560;2023-03-23T07:58:07;97964.97;;;13.90;54.91
45327;BME280;31062;49.678;24.560;2023-03-23T08:00:53;97964.00;;;13.97;54.18
45327;BME280;31062;49.678;24.560;2023-03-23T08:03:40;97937.31;;;14.17;52.97
45327;BME280;31062;49.678;24.560;2023-03-23T08:06:54;97954.28;;;14.45;52.34
45327;BME280;31062;49.678;24.560;2023-03-23T08:09:55;97957.84;;;14.70;51.82
45327;BME280;31062;49.678;24.560;2023-03-23T08:12:57;97963.59;;;14.86;51.57
45327;BME280;31062;49.678;24.560;2023-03-23T08:16:05;97960.59;;;14.82;51.79
45327;BME280;31062;49.678;24.560;2023-03-23T08:19:08;97943.84;;;15.07;50.72
45327;BME280;31062;49.678;24.560;2023-03-23T08:22:04;97951.34;;;15.17;51.35
45327;BME280;31062;49.678;24.560;2023-03-23T08:24:52;97946.41;;;15.29;51.78
45327;BME280;31062;49.678;24.560;2023-03-23T08:28:03;97793.75;;;14.30;50.60
45327;BME280;31062;49.678;24.560;2023-03-23T08:31:07;97924.06;;;15.29;50.54
45327;BME280;31062;49.678;24.560;2023-03-23T08:34:12;97957.69;;;15.56;50.88
45327;BME280;31062;49.678;24.560;2023-03-23T08:37:15;97941.88;;;15.74;50.56
45327;BME280;31062;49.678;24.560;2023-03-23T08:40:21;97946.66;;;15.85;50.73
45327;BME280;31062;49.678;24.560;2023-03-23T08:43:16;97941.69;;;15.98;50.61
45327;BME280;31062;49.678;24.560;2023-03-23T08:46:25;97942.22;;;16.08;49.42
45327;BME280;31062;49.678;24.560;2023-03-23T08:49:39;97944.09;;;16.17;49.47
45327;BME280;31062;49.678;24.560;2023-03-23T08:52:49;97823.66;;;15.44;49.09
45327;BME280;31062;49.678;24.560;2023-03-23T08:56:08;97935.28;;;16.22;48.94
45327;BME280;31062;49.678;24.560;2023-03-23T08:59:13;97917.38;;;16.14;49.33
45327;BME280;31062;49.678;24.560;2023-03-23T09:02:12;97921.09;;;16.32;48.40
45327;BME280;31062;49.678;24.560;2023-03-23T09:05:25;97924.63;;;16.19;48.50
45327;BME280;31062;49.678;24.560;2023-03-23T09:08:45;97820.47;;;15.64;47.63
45327;BME280;31062;49.678;24.560;2023-03-23T09:11:31;97929.25;;;16.28;49.01
45327;BME280;31062;49.678;24.560;2023-03-23T09:14:16;97960.53;;;16.52;48.82
45327;BME280;31062;49.678;24.560;2023-03-23T09:17:02;97941.78;;;16.54;48.20
45327;BME280;31062;49.678;24.560;2023-03-23T09:19:47;97936.69;;;16.51;47.54
45327;BME280;31062;49.678;24.560;2023-03-23T09:22:32;97910.94;;;16.25;48.42
45327;BME280;31062;49.678;24.560;2023-03-23T09:25:20;97910.31;;;16.26;47.90
45327;BME280;31062;49.678;24.560;2023-03-23T09:28:05;97938.66;;;16.48;48.53
45327;BME280;31062;49.678;24.560;2023-03-23T09:30:51;97945.38;;;16.57;49.24
45327;BME280;31062;49.678;24.560;2023-03-23T09:33:39;97916.69;;;16.56;48.31
45327;BME280;31062;49.678;24.560;2023-03-23T09:36:25;97906.75;;;16.53;48.02
45327;BME280;31062;49.678;24.560;2023-03-23T09:39:15;97820.44;;;15.91;48.57
45327;BME280;31062;49.678;24.560;2023-03-23T09:42:22;97936.13;;;16.82;48.70
45327;BME280;31062;49.678;24.560;2023-03-23T09:48:43;97926.97;;;16.95;48.51
45327;BME280;31062;49.678;24.560;2023-03-23T09:51:41;97935.66;;;17.01;47.86
45327;BME280;31062;49.678;24.560;2023-03-23T09:54:30;97930.16;;;17.03;47.97
45327;BME280;31062;49.678;24.560;2023-03-23T09:57:28;97941.66;;;17.09;47.82
45327;BME280;31062;49.678;24.560;2023-03-23T10:05:51;97937.50;;;17.10;46.60
45327;BME280;31062;49.678;24.560;2023-03-23T10:08:45;97918.97;;;17.03;47.15
45327;BME280;31062;49.678;24.560;2023-03-23T10:15:16;97945.31;;;17.27;47.41
45327;BME280;31062;49.678;24.560;2023-03-23T10:18:07;97920.53;;;17.37;46.55
45327;BME280;31062;49.678;24.560;2023-03-23T10:21:01;97920.94;;;17.45;46.99
45327;BME280;31062;49.678;24.560;2023-03-23T10:24:04;97919.09;;;17.52;46.87
45327;BME280;31062;49.678;24.560;2023-03-23T10:33:05;97922.28;;;17.44;45.45
45327;BME280;31062;49.678;24.560;2023-03-23T10:36:07;97919.09;;;17.36;43.97
45327;BME280;31062;49.678;24.560;2023-03-23T10:39:09;97907.88;;;17.36;45.25
45327;BME280;31062;49.678;24.560;2023-03-23T10:41:55;97924.69;;;17.36;44.63
45327;BME280;31062;49.678;24.560;2023-03-23T10:44:42;97892.69;;;17.41;44.20
45327;BME280;31062;49.678;24.560;2023-03-23T10:47:27;97871.13;;;17.44;42.50
45327;BME280;31062;49.678;24.560;2023-03-23T10:50:15;97769.91;;;16.89;44.23
45327;BME280;31062;49.678;24.560;2023-03-23T10:53:15;97873.00;;;17.71;42.24
45327;BME280;31062;49.678;24.560;2023-03-23T10:56:01;97850.53;;;17.69;42.42
45327;BME280;31062;49.678;24.560;2023-03-23T10:58:46;97862.53;;;17.87;40.22
45327;BME280;31062;49.678;24.560;2023-03-23T11:01:32;97855.53;;;17.88;42.31
45327;BME280;31062;49.678;24.560;2023-03-23T11:04:18;97737.28;;;17.11;42.78
45327;BME280;31062;49.678;24.560;2023-03-23T11:07:03;97865.38;;;17.89;42.47
45327;BME280;31062;49.678;24.560;2023-03-23T11:09:55;97703.34;;;17.03;42.96
45327;BME280;31062;49.678;24.560;2023-03-23T11:12:44;97705.47;;;17.04;41.73
45327;BME280;31062;49.678;24.560;2023-03-23T11:15:37;97856.91;;;18.20;42.09
45327;BME280;31062;49.678;24.560;2023-03-23T11:18:38;97858.34;;;18.21;42.41
45327;BME280;31062;49.678;24.560;2023-03-23T11:21:27;97860.06;;;18.28;42.13
45327;BME280;31062;49.678;24.560;2023-03-23T11:24:12;97846.28;;;18.34;41.07
45327;BME280;31062;49.678;24.560;2023-03-23T11:26:57;97713.72;;;17.49;42.21
45327;BME280;31062;49.678;24.560;2023-03-23T11:30:09;97838.41;;;18.49;41.73
45327;BME280;31062;49.678;24.560;2023-03-23T11:33:00;97831.53;;;18.52;41.29
45327;BME280;31062;49.678;24.560;2023-03-23T11:35:46;97834.75;;;18.62;41.81
45327;BME280;31062;49.678;24.560;2023-03-23T11:38:32;97684.78;;;17.61;40.77
45327;BME280;31062;49.678;24.560;2023-03-23T11:41:18;97845.47;;;18.50;40.58
45327;BME280;31062;49.678;24.560;2023-03-23T11:44:09;97826.09;;;18.56;42.12
45327;BME280;31062;49.678;24.560;2023-03-23T11:47:16;97830.69;;;18.65;41.89
45327;BME280;31062;49.678;24.560;2023-03-23T11:50:20;97741.00;;;17.98;42.43
45327;BME280;31062;49.678;24.560;2023-03-23T11:53:13;97719.44;;;17.85;42.70
45327;BME280;31062;49.678;24.560;2023-03-23T11:56:11;97838.94;;;18.61;42.46
45327;BME280;31062;49.678;24.560;2023-03-23T11:58:58;97792.72;;;18.28;42.77
45327;BME280;31062;49.678;24.560;2023-03-23T12:01:48;97852.38;;;18.47;43.44
45327;BME280;31062;49.678;24.560;2023-03-23T12:23:28;97813.25;;;18.51;42.15
45327;BME280;31062;49.678;24.560;2023-03-23T12:35:47;97776.03;;;18.68;41.72
45327;BME280;31062;49.678;24.560;2023-03-23T12:38:57;97770.81;;;18.78;41.33
45327;BME280;31062;49.678;24.560;2023-03-23T12:41:59;97768.91;;;18.83;41.56
45327;BME280;31062;49.678;24.560;2023-03-23T12:48:11;97621.06;;;17.79;39.66
45327;BME280;31062;49.678;24.560;2023-03-23T12:57:04;97765.13;;;18.76;40.61
45327;BME280;31062;49.678;24.560;2023-03-23T13:00:20;97759.34;;;18.72;40.08
45327;BME280;31062;49.678;24.560;2023-03-23T13:03:14;97727.44;;;18.46;39.51
45327;BME280;31062;49.678;24.560;2023-03-23T13:06:14;97748.94;;;18.57;40.67
45327;BME280;31062;49.678;24.560;2023-03-23T13:09:26;97743.16;;;18.53;40.52
45327;BME280;31062;49.678;24.560;2023-03-23T13:12:13;97593.31;;;17.51;41.23
45327;BME280;31062;49.678;24.560;2023-03-23T13:18:36;97732.72;;;18.73;40.84
45327;BME280;31062;49.678;24.560;2023-03-23T13:21:59;97742.81;;;18.80;39.35
45327;BME280;31062;49.678;24.560;2023-03-23T13:24:54;97673.34;;;18.25;39.66
45327;BME280;31062;49.678;24.560;2023-03-23T13:27:40;97590.47;;;17.85;39.32
45327;BME280;31062;49.678;24.560;2023-03-23T13:30:27;97647.72;;;18.15;38.95
45327;BME280;31062;49.678;24.560;2023-03-23T13:33:12;97696.50;;;18.44;39.29
45327;BME280;31062;49.678;24.560;2023-03-23T13:36:03;97614.47;;;17.90;38.78
45327;BME280;31062;49.678;24.560;2023-03-23T13:38:51;97727.75;;;18.54;38.57
45327;BME280;31062;49.678;24.560;2023-03-23T13:41:58;97742.94;;;18.64;39.59
45327;BME280;31062;49.678;24.560;2023-03-23T13:44:55;97570.97;;;17.53;39.56
45327;BME280;31062;49.678;24.560;2023-03-23T13:47:41;97740.50;;;18.74;40.03
45327;BME280;31062;49.678;24.560;2023-03-23T13:50:28;97631.16;;;18.04;39.20
45327;BME280;31062;49.678;24.560;2023-03-23T13:53:23;97727.06;;;18.91;38.69
45327;BME280;31062;49.678;24.560;2023-03-23T13:56:32;97588.75;;;17.95;39.16
45327;BME280;31062;49.678;24.560;2023-03-23T14:00:24;97650.16;;;18.43;38.29
45327;BME280;31062;49.678;24.560;2023-03-23T14:08:43;97645.38;;;18.27;38.25
45327;BME280;31062;49.678;24.560;2023-03-23T14:11:28;97681.59;;;18.57;37.23
45327;BME280;31062;49.678;24.560;2023-03-23T14:14:25;97689.81;;;18.70;36.91
45327;BME280;31062;49.678;24.560;2023-03-23T14:17:17;97670.59;;;18.63;37.12
45327;BME280;31062;49.678;24.560;2023-03-23T14:20:05;97681.19;;;18.64;37.14
45327;BME280;31062;49.678;24.560;2023-03-23T14:22:55;97713.44;;;18.83;38.06
45327;BME280;31062;49.678;24.560;2023-03-23T14:25:40;97731.44;;;18.76;37.97
45327;BME280;31062;49.678;24.560;2023-03-23T14:28:27;97579.16;;;17.65;38.63
45327;BME280;31062;49.678;24.560;2023-03-23T14:31:19;97746.16;;;18.57;37.84
45327;BME280;31062;49.678;24.560;2023-03-23T14:34:21;97644.22;;;17.97;38.33
45327;BME280;31062;49.678;24.560;2023-03-23T14:37:11;97643.09;;;17.86;38.28
45327;BME280;31062;49.678;24.560;2023-03-23T14:39:58;97732.66;;;18.35;39.30
45327;BME280;31062;49.678;24.560;2023-03-23T14:42:44;97699.41;;;18.10;39.61
45327;BME280;31062;49.678;24.560;2023-03-23T14:45:31;97660.41;;;17.81;39.67
45327;BME280;31062;49.678;24.560;2023-03-23T14:48:16;97710.63;;;18.10;39.44
45327;BME280;31062;49.678;24.560;2023-03-23T14:51:04;97742.13;;;18.44;39.72
45327;BME280;31062;49.678;24.560;2023-03-23T14:53:49;97726.56;;;18.41;39.67
45327;BME280;31062;49.678;24.560;2023-03-23T14:56:36;97687.53;;;17.94;39.77
45327;BME280;31062;49.678;24.560;2023-03-23T14:59:21;97725.94;;;18.25;39.92
45327;BME280;31062;49.678;24.560;2023-03-23T15:02:11;97578.72;;;17.20;39.68
45327;BME280;31062;49.678;24.560;2023-03-23T15:05:00;97603.97;;;17.37;39.97
45327;BME280;31062;49.678;24.560;2023-03-23T15:07:47;97604.75;;;17.40;40.24
45327;BME280;31062;49.678;24.560;2023-03-23T15:10:34;97723.75;;;18.23;40.40
45327;BME280;31062;49.678;24.560;2023-03-23T15:13:18;97722.88;;;18.19;40.00
45327;BME280;31062;49.678;24.560;2023-03-23T15:16:30;97718.00;;;18.19;40.47
45327;BME280;31062;49.678;24.560;2023-03-23T15:19:28;97724.81;;;18.14;40.65
45327;BME280;31062;49.678;24.560;2023-03-23T15:25:19;97732.09;;;18.04;40.66
45327;BME280;31062;49.678;24.560;2023-03-23T15:30:55;97547.69;;;16.80;40.65
45327;BME280;31062;49.678;24.560;2023-03-23T15:33:42;97743.72;;;17.96;40.20
45327;BME280;31062;49.678;24.560;2023-03-23T15:36:31;97656.34;;;17.50;40.65
45327;BME280;31062;49.678;24.560;2023-03-23T15:39:17;97698.25;;;17.82;41.10
45327;BME280;31062;49.678;24.560;2023-03-23T15:42:04;97550.75;;;16.70;40.53
45327;BME280;31062;49.678;24.560;2023-03-23T15:45:03;97717.81;;;17.80;40.43
45327;BME280;31062;49.678;24.560;2023-03-23T15:47:49;97655.75;;;17.36;41.23
45327;BME280;31062;49.678;24.560;2023-03-23T15:50:34;97561.59;;;16.62;41.06
45327;BME280;31062;49.678;24.560;2023-03-23T15:53:27;97642.25;;;17.15;40.97
45327;BME280;31062;49.678;24.560;2023-03-23T15:56:13;97728.16;;;17.60;41.07
45327;BME280;31062;49.678;24.560;2023-03-23T15:58:59;97717.97;;;17.50;41.60
45327;BME280;31062;49.678;24.560;2023-03-23T16:01:45;97524.47;;;16.13;41.64
45327;BME280;31062;49.678;24.560;2023-03-23T16:04:32;97713.31;;;17.39;41.36
45327;BME280;31062;49.678;24.560;2023-03-23T16:07:21;97722.09;;;17.32;41.69
45327;BME280;31062;49.678;24.560;2023-03-23T16:10:14;97729.59;;;17.27;41.64
45327;BME280;31062;49.678;24.560;2023-03-23T16:13:01;97707.38;;;17.00;41.11
45327;BME280;31062;49.678;24.560;2023-03-23T16:15:49;97740.91;;;17.13;41.36
45327;BME280;31062;49.678;24.560;2023-03-23T16:18:35;97754.19;;;17.13;41.46
45327;BME280;31062;49.678;24.560;2023-03-23T16:21:21;97720.13;;;16.71;41.28
45327;BME280;31062;49.678;24.560;2023-03-23T16:24:08;97749.38;;;17.00;41.38
45327;BME280;31062;49.678;24.560;2023-03-23T16:26:54;97657.25;;;16.27;41.85
45327;BME280;31062;49.678;24.560;2023-03-23T16:29:40;97767.00;;;16.87;41.59
45327;BME280;31062;49.678;24.560;2023-03-23T16:32:31;97548.56;;;15.16;42.04
45327;BME280;31062;49.678;24.560;2023-03-23T16:35:16;97754.81;;;16.80;42.38